Schedule Details

Flight Number: CPX802
Departure: Joint Base McGuire Dix Lakehurst (KWRI) at N/A
Arrival: Norfolk Naval Station (Chambers Field) (KNGU) at N/A


Current Weather Information
KWRI 180526Z 10004KT 7SM OVC009 01/01 A2989 RMK AO2A RAE11 SLP123 $
KNGU 180510Z 35003KT 5SM -RA BR BKN003 OVC009 06/06 A2992 RMK AO2 P0000 T00610056

Route Map